Time;durP1;ratioP1;P1;durP2;ratioP2;P2;SDS_P1;SDS_P2;PMS_P1;PMS_P2;Temp;Humidity;BMP_temperature;BMP_pressure;BME280_temperature;BME280_humidity;BME280_pressure;Samples;Min_cycle;Max_cycle;Signal;HPM_P1;HPM_P2
2021/09/17 00:01:19;;;;;;;3.63;2.13;;;;;;;14.68;76.93;100795.66;5073352;28;20311;-82
2021/09/17 00:03:47;;;;;;;3.80;1.90;;;;;;;14.66;77.49;100792.25;5073013;28;20319;-82
2021/09/17 00:06:14;;;;;;;2.60;1.73;;;;;;;14.63;77.55;100792.47;5078117;28;20208;-82
2021/09/17 00:08:41;;;;;;;3.80;2.13;;;;;;;14.59;77.38;100791.88;5072362;28;20239;-82
2021/09/17 00:11:08;;;;;;;3.83;2.20;;;;;;;14.58;77.76;100794.66;5073440;28;20231;-82
2021/09/17 00:13:35;;;;;;;5.40;2.10;;;;;;;14.54;77.97;100786.00;5074703;28;20714;-82
2021/09/17 00:16:01;;;;;;;4.73;2.03;;;;;;;14.53;77.64;100803.03;5074118;28;20209;-83
2021/09/17 00:18:28;;;;;;;4.17;2.40;;;;;;;14.50;78.27;100799.78;5074360;28;20255;-82
2021/09/17 00:20:56;;;;;;;3.27;2.23;;;;;;;14.48;78.19;100799.91;5074160;28;20205;-82
2021/09/17 00:23:22;;;;;;;3.03;2.27;;;;;;;14.45;78.46;100800.13;5074269;28;20304;-83
2021/09/17 00:25:49;;;;;;;3.07;2.50;;;;;;;14.44;78.62;100792.19;5073938;28;20661;-82
2021/09/17 00:28:16;;;;;;;3.80;2.70;;;;;;;14.43;78.45;100790.50;5074000;28;20244;-82
2021/09/17 00:30:43;;;;;;;3.57;3.10;;;;;;;14.40;78.83;100799.63;5085937;28;20208;-82
2021/09/17 00:33:10;;;;;;;6.20;2.57;;;;;;;14.38;78.69;100796.16;5093639;28;20220;-81
2021/09/17 00:35:36;;;;;;;4.50;3.00;;;;;;;14.36;79.07;100789.22;5094808;28;20696;-80
2021/09/17 00:38:04;;;;;;;3.77;2.37;;;;;;;14.34;78.72;100791.16;5095536;28;20295;-83
2021/09/17 00:40:31;;;;;;;4.53;2.53;;;;;;;14.30;79.22;100797.75;5095489;28;20610;-84
2021/09/17 00:42:58;;;;;;;4.47;2.90;;;;;;;14.27;79.34;100790.78;5072835;28;20229;-83
2021/09/17 00:45:25;;;;;;;3.57;2.43;;;;;;;14.24;79.66;100791.88;5056606;28;20221;-83
2021/09/17 00:47:51;;;;;;;5.10;2.73;;;;;;;14.22;79.50;100796.50;5056056;28;20207;-82
2021/09/17 00:50:20;;;;;;;5.17;3.10;;;;;;;14.21;79.72;100794.78;5055856;28;20206;-83
2021/09/17 00:52:48;;;;;;;3.40;3.00;;;;;;;14.19;79.91;100794.03;5056147;28;20292;-82
2021/09/17 00:55:16;;;;;;;4.50;3.10;;;;;;;14.17;80.03;100798.66;5056322;28;20300;-82
2021/09/17 00:57:43;;;;;;;3.57;3.00;;;;;;;14.15;79.95;100791.72;5053961;28;20217;-82
2021/09/17 01:00:12;;;;;;;4.43;3.20;;;;;;;14.13;80.21;100791.00;5053765;28;20252;-82
2021/09/17 01:02:39;;;;;;;4.53;3.20;;;;;;;14.13;80.11;100788.31;5053975;28;20281;-82
2021/09/17 01:05:08;;;;;;;4.77;3.33;;;;;;;14.11;80.31;100791.09;5053738;28;20217;-82
2021/09/17 01:07:34;;;;;;;4.70;3.30;;;;;;;14.10;80.77;100785.84;5053682;28;20205;-82
2021/09/17 01:10:01;;;;;;;5.60;3.77;;;;;;;14.08;80.44;100777.94;5053157;28;20618;-82
2021/09/17 01:12:30;;;;;;;5.87;3.80;;;;;;;14.08;80.53;100785.13;5055935;28;20247;-83
2021/09/17 01:14:57;;;;;;;6.90;3.73;;;;;;;14.07;80.84;100778.91;5057710;28;20201;-82
2021/09/17 01:17:31;;;;;;;4.97;4.13;;;;;;;14.04;80.86;100776.44;5056832;28;20235;-83
2021/09/17 01:19:58;;;;;;;7.17;4.43;;;;;;;14.03;81.10;100779.25;5056318;28;20247;-82
2021/09/17 01:22:25;;;;;;;7.50;4.60;;;;;;;14.00;81.10;100772.28;5079033;28;20220;-82
2021/09/17 01:24:52;;;;;;;5.33;4.80;;;;;;;13.98;81.41;100776.91;5093429;28;20232;-82
2021/09/17 01:27:19;;;;;;;5.67;5.13;;;;;;;13.96;81.29;100770.00;5097046;28;20571;-82
2021/09/17 01:29:46;;;;;;;5.70;4.60;;;;;;;13.94;81.20;100766.56;5096912;28;20282;-81
2021/09/17 01:32:12;;;;;;;7.20;5.37;;;;;;;13.92;81.61;100771.19;5094375;28;20231;-82
2021/09/17 01:34:39;;;;;;;9.20;5.23;;;;;;;13.89;81.82;100774.94;5055509;28;20197;-81
2021/09/17 01:37:05;;;;;;;5.83;5.27;;;;;;;13.86;81.69;100767.13;5071217;28;20287;-81
2021/09/17 01:39:33;;;;;;;7.37;5.27;;;;;;;13.84;81.93;100777.09;5096053;28;20199;-81
2021/09/17 01:42:00;;;;;;;10.17;6.50;;;;;;;13.82;81.83;100773.69;5095812;28;20311;-82
2021/09/17 01:44:27;;;;;;;8.20;5.70;;;;;;;13.80;82.07;100764.91;5096148;28;20315;-81
2021/09/17 01:46:53;;;;;;;6.03;5.37;;;;;;;13.79;82.66;100766.72;5096736;28;20287;-82
2021/09/17 01:49:20;;;;;;;6.87;6.17;;;;;;;13.79;82.84;100768.59;5096179;28;20753;-82
2021/09/17 01:51:47;;;;;;;7.30;6.70;;;;;;;13.79;82.62;100773.94;5096072;28;20773;-82
2021/09/17 01:54:13;;;;;;;7.70;5.93;;;;;;;13.81;82.89;100772.81;5096291;28;20239;-82
2021/09/17 01:56:41;;;;;;;8.20;5.47;;;;;;;13.81;83.33;100772.81;5096088;28;20230;-82
2021/09/17 01:59:08;;;;;;;6.27;5.63;;;;;;;13.81;83.43;100772.81;5080038;28;20291;-81
2021/09/17 02:01:34;;;;;;;7.63;6.30;;;;;;;13.84;83.39;100767.25;5075423;28;20316;-82
2021/09/17 02:04:01;;;;;;;7.33;5.60;;;;;;;13.84;83.75;100761.88;5088825;28;20291;-83
2021/09/17 02:06:28;;;;;;;6.70;5.60;;;;;;;13.87;84.07;100767.03;5088323;28;20695;-82
2021/09/17 02:08:55;;;;;;;6.13;5.37;;;;;;;13.89;83.74;100764.22;5084961;28;20290;-82
2021/09/17 02:11:22;;;;;;;7.47;6.67;;;;;;;13.90;83.78;100766.78;5080910;28;20221;-82
2021/09/17 02:13:50;;;;;;;9.20;6.27;;;;;;;13.92;84.37;100761.31;5074850;28;20201;-82
2021/09/17 02:16:16;;;;;;;7.23;6.50;;;;;;;13.94;84.14;100766.56;5076057;28;20283;-82
2021/09/17 02:18:43;;;;;;;6.50;5.87;;;;;;;13.96;84.46;100759.28;5075530;28;20723;-82
2021/09/17 02:21:09;;;;;;;7.73;5.63;;;;;;;13.97;84.53;100761.00;5075811;28;20541;-82
2021/09/17 02:23:36;;;;;;;7.30;6.27;;;;;;;13.98;84.21;100757.31;5092522;28;20207;-82
2021/09/17 02:26:03;;;;;;;7.37;5.70;;;;;;;13.99;84.21;100761.69;5096170;28;20230;-82
2021/09/17 02:28:30;;;;;;;8.20;6.03;;;;;;;14.01;84.62;100754.41;5089584;28;20292;-82
2021/09/17 02:30:58;;;;;;;7.30;6.60;;;;;;;14.01;84.65;100763.28;5073597;28;20304;-82
2021/09/17 02:33:24;;;;;;;7.90;6.27;;;;;;;14.02;84.27;100753.44;5075450;28;20303;-82
2021/09/17 02:35:51;;;;;;;6.10;5.57;;;;;;;14.04;84.35;100756.84;5075183;28;20288;-82
2021/09/17 02:38:18;;;;;;;7.03;6.20;;;;;;;14.04;84.61;100763.06;5075052;28;20297;-82
2021/09/17 02:40:45;;;;;;;7.27;6.07;;;;;;;14.07;84.42;100759.31;5075749;28;20715;-82
2021/09/17 02:43:12;;;;;;;6.43;5.80;;;;;;;14.07;84.33;100753.94;5075362;28;20324;-82
2021/09/17 02:45:38;;;;;;;8.00;5.90;;;;;;;14.07;84.60;100757.47;5075659;28;20286;-82
2021/09/17 02:48:07;;;;;;;7.00;6.17;;;;;;;14.07;84.77;100760.16;5075110;28;20295;-82
2021/09/17 02:50:34;;;;;;;8.00;6.37;;;;;;;14.08;84.84;100756.50;5076034;28;20221;-83
2021/09/17 02:53:00;;;;;;;8.67;5.40;;;;;;;14.10;84.86;100762.59;5075446;28;20251;-82
2021/09/17 02:55:27;;;;;;;6.63;6.03;;;;;;;14.11;84.97;100760.78;5075841;28;20280;-82
2021/09/17 02:57:54;;;;;;;6.77;5.57;;;;;;;14.12;84.50;100759.81;5075816;28;20296;-82
2021/09/17 03:00:21;;;;;;;6.17;5.63;;;;;;;14.13;85.06;100761.53;5070339;28;20201;-82
2021/09/17 03:02:48;;;;;;;6.57;5.87;;;;;;;14.13;84.93;100749.00;5066463;28;20222;-82
2021/09/17 03:05:16;;;;;;;7.60;5.33;;;;;;;14.16;84.77;100753.22;5057347;28;20319;-83
2021/09/17 03:07:43;;;;;;;8.27;5.40;;;;;;;14.16;84.71;100753.22;5058336;28;20248;-82
2021/09/17 03:10:10;;;;;;;7.13;6.00;;;;;;;14.18;85.18;100752.16;5058917;28;20237;-83
2021/09/17 03:12:37;;;;;;;5.57;5.07;;;;;;;14.18;85.02;100746.78;5058187;28;20226;-82
2021/09/17 03:15:05;;;;;;;6.40;5.07;;;;;;;14.20;84.83;100750.22;5069139;28;20865;-82
2021/09/17 03:17:31;;;;;;;5.50;5.00;;;;;;;14.22;85.03;100742.06;5077829;28;20292;-83
2021/09/17 03:19:58;;;;;;;8.00;6.20;;;;;;;14.23;84.90;100741.94;5077240;28;20201;-82
2021/09/17 03:22:26;;;;;;;6.63;5.37;;;;;;;14.25;85.17;100739.16;5088988;28;20303;-82
2021/09/17 03:24:52;;;;;;;6.27;5.63;;;;;;;14.27;84.70;100729.16;5098695;28;20311;-82
2021/09/17 03:27:19;;;;;;;6.87;4.77;;;;;;;14.28;84.88;100732.69;5099121;28;20210;-82
2021/09/17 03:29:46;;;;;;;6.17;5.00;;;;;;;14.31;85.30;100743.19;5098159;28;20608;-82
2021/09/17 03:32:12;;;;;;;5.67;4.77;;;;;;;14.32;85.29;100728.81;5094414;28;20311;-81
2021/09/17 03:34:39;;;;;;;5.73;5.17;;;;;;;14.33;84.89;100734.03;5078736;28;20264;-82
2021/09/17 03:37:06;;;;;;;7.10;4.67;;;;;;;14.36;85.45;100736.47;5081936;28;20250;-83
2021/09/17 03:39:34;;;;;;;6.10;5.50;;;;;;;14.38;85.13;100736.34;5078410;28;20283;-83
2021/09/17 03:42:00;;;;;;;6.00;5.20;;;;;;;14.38;85.00;100739.03;5068835;28;20263;-83
2021/09/17 03:44:27;;;;;;;6.03;4.70;;;;;;;14.40;84.92;100737.09;5075412;28;20933;-82
2021/09/17 03:46:54;;;;;;;5.13;3.93;;;;;;;14.40;85.31;100737.09;5072013;28;20236;-82
2021/09/17 03:49:21;;;;;;;5.07;3.93;;;;;;;14.42;85.23;100738.72;5073639;28;20213;-82
2021/09/17 03:51:48;;;;;;;9.03;4.00;;;;;;;14.43;85.07;100735.06;5077788;28;20248;-83
2021/09/17 03:54:14;;;;;;;5.67;3.53;;;;;;;14.45;85.34;100734.97;5077971;28;20221;-82
2021/09/17 03:56:42;;;;;;;4.10;3.67;;;;;;;14.47;85.42;100727.66;5071809;28;20627;-82
2021/09/17 03:59:09;;;;;;;4.93;3.60;;;;;;;14.48;85.40;100732.91;5078415;28;20197;-82
2021/09/17 04:01:36;;;;;;;6.53;3.37;;;;;;;14.50;85.16;100722.91;5062724;28;20312;-81
2021/09/17 04:04:02;;;;;;;6.60;3.63;;;;;;;14.53;85.08;100721.78;5071735;28;20782;-81
2021/09/17 04:06:29;;;;;;;5.97;4.13;;;;;;;14.54;85.32;100727.03;5067804;28;20227;-82
2021/09/17 04:08:55;;;;;;;4.83;4.00;;;;;;;14.56;85.12;100722.41;5060995;28;20206;-81
2021/09/17 04:11:22;;;;;;;6.00;4.53;;;;;;;14.58;85.13;100719.59;5081796;28;20221;-81
2021/09/17 04:13:50;;;;;;;6.53;4.43;;;;;;;14.59;85.65;100722.16;5064590;28;20687;-81
2021/09/17 04:16:16;;;;;;;6.90;4.67;;;;;;;14.62;85.55;100736.31;5075944;28;20192;-83
2021/09/17 04:18:43;;;;;;;9.63;5.00;;;;;;;14.61;85.14;100732.78;5069550;28;20726;-83
2021/09/17 04:21:10;;;;;;;7.30;5.40;;;;;;;14.62;85.40;100731.81;5066057;28;20292;-82
2021/09/17 04:23:36;;;;;;;6.27;4.70;;;;;;;14.61;85.84;100738.13;5063558;28;20291;-83
2021/09/17 04:26:03;;;;;;;7.20;5.00;;;;;;;14.63;85.88;100735.34;5070212;28;20308;-82
2021/09/17 04:28:30;;;;;;;7.97;4.90;;;;;;;14.64;86.07;100737.03;5065662;28;20197;-82
2021/09/17 04:30:58;;;;;;;6.30;4.70;;;;;;;14.64;85.80;100740.59;5071153;28;20240;-84
2021/09/17 04:33:24;;;;;;;6.40;5.17;;;;;;;14.63;85.84;100738.03;5068243;28;20288;-83
2021/09/17 04:35:51;;;;;;;7.53;5.30;;;;;;;14.64;85.85;100734.38;5069383;28;20718;-84
2021/09/17 04:38:18;;;;;;;9.57;7.23;;;;;;;14.64;86.06;100742.41;5075005;28;20211;-83
2021/09/17 04:40:44;;;;;;;8.07;6.90;;;;;;;14.63;86.33;100748.75;5071116;28;20209;-83
2021/09/17 04:43:11;;;;;;;11.50;7.73;;;;;;;14.63;86.09;100752.28;5067219;28;20230;-83
2021/09/17 04:45:38;;;;;;;9.67;7.17;;;;;;;14.62;86.73;100744.34;5073497;28;20220;-83
2021/09/17 04:48:14;;;;;;;13.00;8.17;;;;;;;14.62;86.30;100745.22;5072165;28;20223;-83
2021/09/17 04:50:42;;;;;;;9.57;7.80;;;;;;;14.61;86.95;100746.19;5066277;28;20284;-83
2021/09/17 04:53:10;;;;;;;14.03;9.07;;;;;;;14.61;87.01;100750.69;5071280;28;21255;-81
2021/09/17 04:55:37;;;;;;;12.57;9.23;;;;;;;14.59;86.84;100748.97;5068747;28;20198;-83
2021/09/17 04:58:04;;;;;;;12.77;9.47;;;;;;;14.59;87.22;100754.34;5064370;28;20203;-82
2021/09/17 05:00:31;;;;;;;12.73;9.90;;;;;;;14.58;87.27;100755.31;5070774;28;20288;-80
2021/09/17 05:02:58;;;;;;;14.10;10.37;;;;;;;14.56;87.11;100751.88;5070249;28;20225;-80
2021/09/17 05:05:26;;;;;;;15.47;10.53;;;;;;;14.55;87.24;100752.88;5072394;28;20243;-80
2021/09/17 05:07:54;;;;;;;17.73;11.20;;;;;;;14.53;87.86;100751.28;5065041;28;20216;-81
2021/09/17 05:10:29;;;;;;;13.63;10.93;;;;;;;14.54;87.70;100740.44;5066470;28;20307;-82
2021/09/17 05:12:56;;;;;;;14.50;10.77;;;;;;;14.53;87.82;100743.22;5059266;28;20662;-80
2021/09/17 05:15:23;;;;;;;13.60;10.53;;;;;;;14.52;87.92;100749.56;5059265;28;20216;-81
2021/09/17 05:17:49;;;;;;;11.23;10.03;;;;;;;14.51;87.72;100746.03;5063678;28;20208;-83
2021/09/17 05:20:17;;;;;;;11.83;9.73;;;;;;;14.51;88.06;100745.22;5067219;28;20318;-82
2021/09/17 05:22:45;;;;;;;13.13;9.10;;;;;;;14.50;87.86;100744.34;5065791;28;20239;-82
2021/09/17 05:25:12;;;;;;;10.63;9.27;;;;;;;14.51;87.94;100746.03;5069204;28;20681;-83
2021/09/17 05:27:39;;;;;;;10.37;9.07;;;;;;;14.51;88.08;100748.72;5075316;28;20206;-82
2021/09/17 05:30:08;;;;;;;12.13;8.77;;;;;;;14.52;88.28;100746.88;5073307;28;20633;-82
2021/09/17 05:32:35;;;;;;;10.40;9.03;;;;;;;14.52;88.01;100749.56;5067848;28;20230;-81
2021/09/17 05:35:03;;;;;;;12.43;9.70;;;;;;;14.51;88.05;100755.94;5070134;28;20287;-81
2021/09/17 05:37:30;;;;;;;12.03;10.43;;;;;;;14.51;88.08;100750.56;5079205;28;20293;-82
2021/09/17 05:39:58;;;;;;;11.70;9.83;;;;;;;14.52;88.29;100746.88;5077127;28;20200;-82
2021/09/17 05:42:25;;;;;;;11.33;10.13;;;;;;;14.53;88.06;100753.94;5058623;28;20320;-82
2021/09/17 05:44:51;;;;;;;19.87;11.27;;;;;;;14.53;88.24;100759.31;5096838;28;20271;-82
2021/09/17 05:47:19;;;;;;;16.20;10.87;;;;;;;14.54;87.82;100756.50;5091112;28;20291;-82
2021/09/17 05:49:45;;;;;;;11.53;10.17;;;;;;;14.55;88.35;100755.53;5096075;28;20220;-82
2021/09/17 05:52:12;;;;;;;14.33;10.70;;;;;;;14.58;88.48;100762.50;5096165;28;20300;-81
2021/09/17 05:54:40;;;;;;;12.87;9.60;;;;;;;14.59;88.25;100764.19;5092362;28;20239;-81
2021/09/17 05:57:08;;;;;;;13.00;9.73;;;;;;;14.61;87.97;100756.91;5082385;28;20193;-81
2021/09/17 05:59:35;;;;;;;12.33;9.50;;;;;;;14.64;88.38;100759.34;5086134;28;20279;-81
2021/09/17 06:02:03;;;;;;;13.07;9.53;;;;;;;14.66;87.88;100759.22;5096007;28;20224;-81
2021/09/17 06:04:30;;;;;;;11.27;9.13;;;;;;;14.68;88.23;100754.59;5079480;28;20638;-80
2021/09/17 06:06:56;;;;;;;13.63;9.40;;;;;;;14.69;88.21;100751.78;5092444;28;20303;-81
2021/09/17 06:09:23;;;;;;;10.00;8.97;;;;;;;14.71;87.77;100751.66;5099982;28;20206;-81
2021/09/17 06:11:49;;;;;;;13.60;10.07;;;;;;;14.72;87.77;100756.91;5099530;28;20220;-81
2021/09/17 06:14:17;;;;;;;11.20;9.33;;;;;;;14.73;87.92;100753.25;5099792;28;20211;-81
2021/09/17 06:16:44;;;;;;;13.87;10.13;;;;;;;14.74;87.91;100751.41;5079239;28;20193;-81
2021/09/17 06:19:11;;;;;;;10.70;9.30;;;;;;;14.76;87.61;100752.16;5084352;28;20726;-80
2021/09/17 06:21:37;;;;;;;11.00;9.50;;;;;;;14.78;87.48;100753.75;5078544;28;20267;-81
2021/09/17 06:24:04;;;;;;;13.37;9.30;;;;;;;14.81;87.54;100752.66;5082807;28;20292;-81
2021/09/17 06:26:31;;;;;;;11.23;8.80;;;;;;;14.83;87.49;100750.69;5077379;28;20289;-81
2021/09/17 06:28:59;;;;;;;11.70;8.57;;;;;;;14.85;87.53;100764.84;5087098;28;20672;-81
2021/09/17 06:31:27;;;;;;;10.87;8.20;;;;;;;14.85;87.57;100754.97;5085648;28;20229;-81
2021/09/17 06:33:54;;;;;;;10.53;7.97;;;;;;;14.87;87.64;100760.19;5077308;28;20212;-81
2021/09/17 06:36:21;;;;;;;9.07;7.67;;;;;;;14.88;87.34;100759.22;5088739;28;20260;-81
2021/09/17 06:38:48;;;;;;;8.43;7.53;;;;;;;14.89;87.45;100763.59;5087736;28;20292;-81
2021/09/17 06:41:14;;;;;;;7.60;6.40;;;;;;;14.89;86.83;100759.09;5076050;28;20201;-81
2021/09/17 06:43:41;;;;;;;9.57;5.67;;;;;;;14.91;87.17;100757.16;5082226;28;20279;-81
2021/09/17 06:46:08;;;;;;;8.67;5.87;;;;;;;14.93;86.99;100754.34;5098622;28;20259;-81
2021/09/17 06:48:36;;;;;;;8.43;5.53;;;;;;;14.96;86.91;100761.31;5086561;28;20204;-81
2021/09/17 06:51:03;;;;;;;8.90;5.50;;;;;;;14.97;86.69;100755.81;5094207;28;20713;-81
2021/09/17 06:53:30;;;;;;;5.83;5.23;;;;;;;15.01;86.49;100756.44;5098373;28;20208;-81
2021/09/17 06:55:56;;;;;;;8.77;5.00;;;;;;;15.03;86.57;100749.13;5098305;28;20200;-80
2021/09/17 06:58:28;;;;;;;6.03;4.83;;;;;;;15.04;86.66;100749.00;5101372;28;20597;-80
2021/09/17 07:00:55;;;;;;;6.70;5.00;;;;;;;15.07;86.25;100751.41;5089903;28;20193;-80
2021/09/17 07:03:21;;;;;;;7.17;4.50;;;;;;;15.09;86.19;100749.44;5088676;28;20666;-80
2021/09/17 07:05:49;;;;;;;6.03;4.80;;;;;;;15.10;86.17;100747.63;5080004;28;20207;-82
2021/09/17 07:08:18;;;;;;;8.40;5.07;;;;;;;15.10;85.81;100747.63;5074198;28;20655;-82
2021/09/17 07:10:45;;;;;;;5.90;4.63;;;;;;;15.12;85.65;100757.25;5073883;28;20248;-82
2021/09/17 07:13:12;;;;;;;7.10;4.90;;;;;;;15.14;85.71;100758.00;5075648;28;20308;-82
2021/09/17 07:15:39;;;;;;;6.13;4.20;;;;;;;15.17;85.60;100756.91;5080172;28;20283;-82
2021/09/17 07:18:07;;;;;;;7.93;4.80;;;;;;;15.20;85.64;100749.47;5094633;28;20633;-81
2021/09/17 07:20:34;;;;;;;5.50;4.73;;;;;;;15.25;85.53;100763.34;5081369;28;20295;-81
2021/09/17 07:23:03;;;;;;;8.27;4.87;;;;;;;15.28;85.23;100757.72;5076298;28;20308;-82
2021/09/17 07:25:30;;;;;;;8.80;4.57;;;;;;;15.31;85.35;100764.69;5077738;28;20212;-82
2021/09/17 07:27:56;;;;;;;5.47;4.47;;;;;;;15.34;85.17;100759.06;5085278;28;20217;-81
2021/09/17 07:30:23;;;;;;;6.93;4.40;;;;;;;15.39;84.77;100767.59;5078397;28;20237;-82
2021/09/17 07:32:50;;;;;;;6.07;4.50;;;;;;;15.45;84.33;100769.75;5074084;28;20311;-80
2021/09/17 07:35:17;;;;;;;7.20;4.33;;;;;;;15.51;84.92;100765.75;5083955;28;20637;-80
2021/09/17 07:37:44;;;;;;;7.53;4.40;;;;;;;15.56;84.57;100772.47;5091818;28;20200;-80
2021/09/17 07:40:14;;;;;;;6.37;4.10;;;;;;;15.60;84.54;100763.16;5096567;28;20643;-80
2021/09/17 07:42:40;;;;;;;6.40;3.73;;;;;;;15.67;84.34;100763.53;5080780;28;20742;-80
2021/09/17 07:45:08;;;;;;;7.77;3.83;;;;;;;15.75;84.30;100769.13;5081702;28;20296;-80
2021/09/17 07:47:34;;;;;;;5.07;3.57;;;;;;;15.81;83.88;100770.44;5077657;28;20265;-80
2021/09/17 07:50:01;;;;;;;6.37;3.40;;;;;;;15.86;83.39;100769.06;5077907;28;20283;-80
2021/09/17 07:52:28;;;;;;;5.30;3.30;;;;;;;15.90;82.82;100770.53;5098100;28;20315;-80
2021/09/17 07:54:55;;;;;;;4.30;2.80;;;;;;;15.92;82.40;100770.41;5096882;28;21012;-80
2021/09/17 07:57:22;;;;;;;4.10;3.27;;;;;;;15.94;81.93;100766.59;5095939;28;20195;-81
2021/09/17 07:59:49;;;;;;;5.80;3.83;;;;;;;15.98;81.52;100772.56;5099290;28;20201;-80
2021/09/17 08:02:16;;;;;;;6.20;3.90;;;;;;;16.04;81.21;100771.19;5080965;28;20657;-80
2021/09/17 08:04:42;;;;;;;5.27;3.93;;;;;;;16.14;81.22;100772.13;5094789;28;20233;-80
2021/09/17 08:07:09;;;;;;;4.30;3.50;;;;;;;16.21;80.74;100773.31;5077524;28;20227;-82
2021/09/17 08:09:36;;;;;;;5.70;3.80;;;;;;;16.24;80.28;100768.53;5075464;28;20721;-82
2021/09/17 08:12:04;;;;;;;4.83;2.93;;;;;;;16.29;79.52;100770.84;5075347;28;20324;-81
2021/09/17 08:14:32;;;;;;;4.73;2.93;;;;;;;16.36;79.02;100769.31;5074871;28;20683;-84
2021/09/17 08:16:58;;;;;;;4.33;3.07;;;;;;;16.46;78.69;100777.44;5073949;28;20213;-83
2021/09/17 08:19:25;;;;;;;4.00;2.37;;;;;;;16.56;78.05;100771.13;5060324;28;20291;-82
2021/09/17 08:21:52;;;;;;;3.33;1.90;;;;;;;16.66;77.15;100773.91;5067825;28;20250;-83
2021/09/17 08:24:19;;;;;;;3.70;1.90;;;;;;;16.75;76.28;100783.88;5070712;28;20599;-83
2021/09/17 08:26:48;;;;;;;3.50;1.57;;;;;;;16.87;75.91;100788.19;5070049;28;20231;-83
2021/09/17 08:29:16;;;;;;;5.40;1.83;;;;;;;17.00;75.32;100778.06;5073469;28;20430;-83
2021/09/17 08:31:44;;;;;;;3.77;1.87;;;;;;;17.09;73.70;100776.38;5074343;28;20320;-83
2021/09/17 08:34:11;;;;;;;3.20;1.70;;;;;;;17.16;72.99;100782.94;5074388;28;20217;-82
2021/09/17 08:36:38;;;;;;;4.17;1.90;;;;;;;17.28;72.69;100779.16;5074758;28;20314;-83
2021/09/17 08:39:06;;;;;;;1.73;1.23;;;;;;;17.41;72.05;100780.72;5076374;28;20300;-83
2021/09/17 08:44:08;;;;;;;1.43;0.90;;;;;;;17.64;70.06;100776.84;5049314;28;20244;-73
2021/09/17 08:46:38;;;;;;;2.20;0.90;;;;;;;17.75;69.35;100774.03;5050488;28;20227;-74
2021/09/17 08:49:07;;;;;;;2.30;0.80;;;;;;;17.86;68.31;100767.66;5050809;28;20227;-74
2021/09/17 08:51:34;;;;;;;1.40;0.53;;;;;;;17.93;67.34;100769.63;5048817;28;20222;-74
2021/09/17 08:54:02;;;;;;;1.80;0.73;;;;;;;17.96;66.58;100761.28;5048759;28;20202;-73
2021/09/17 08:56:30;;;;;;;2.17;0.90;;;;;;;17.99;65.72;100766.38;5084354;22;20231;-82
2021/09/17 08:58:57;;;;;;;3.03;0.70;;;;;;;18.08;65.97;100771.94;5060850;28;20698;-82
2021/09/17 09:01:28;;;;;;;0.60;0.60;;;;;;;18.14;65.70;100774.03;5074770;28;20312;-83
2021/09/17 09:03:59;;;;;;;1.43;0.60;;;;;;;18.19;65.04;100778.00;5070561;28;20208;-83
2021/09/17 09:06:33;;;;;;;3.37;0.90;;;;;;;18.29;64.99;100769.91;5068249;28;20210;-83
2021/09/17 09:09:02;;;;;;;1.63;0.70;;;;;;;18.42;64.17;100778.56;5071366;28;20202;-83
2021/09/17 09:11:33;;;;;;;2.30;0.80;;;;;;;18.44;63.47;100776.56;5059729;28;20319;-83
2021/09/17 09:14:08;;;;;;;1.53;0.53;;;;;;;18.42;62.94;100765.09;5064383;28;20203;-83
2021/09/17 09:16:36;;;;;;;1.53;0.83;;;;;;;18.44;62.94;100776.56;5066872;28;20780;-83
2021/09/17 09:19:22;;;;;;;1.17;0.40;;;;;;;18.46;62.95;100769.16;5064881;28;20208;-83
2021/09/17 09:21:52;;;;;;;2.90;0.90;;;;;;;18.49;62.75;100776.97;5131530;22;20523;-74
2021/09/17 09:24:20;;;;;;;1.40;0.70;;;;;;;18.53;62.49;100769.44;5035262;28;20736;-74
2021/09/17 09:27:05;;;;;;;2.90;0.80;;;;;;;18.53;61.92;100762.22;5041305;28;20610;-74
2021/09/17 09:29:32;;;;;;;1.17;0.70;;;;;;;18.59;61.95;100764.38;5038604;28;20213;-75
2021/09/17 09:31:59;;;;;;;3.33;0.70;;;;;;;18.67;61.71;100759.06;5043237;28;20290;-74
2021/09/17 09:34:47;;;;;;;3.70;0.70;;;;;;;18.79;61.92;100746.28;5042143;28;20868;-75
2021/09/17 09:37:18;;;;;;;2.50;0.73;;;;;;;18.90;61.31;100764.13;5043692;28;20208;-74
2021/09/17 09:39:56;;;;;;;1.00;0.60;;;;;;;19.00;61.47;100762.22;5045262;28;20237;-75
2021/09/17 09:42:31;;;;;;;2.13;0.80;;;;;;;19.04;60.87;100758.22;5039575;28;20195;-74
2021/09/17 09:45:16;;;;;;;1.37;0.73;;;;;;;19.07;60.91;100753.38;5036675;28;21946;-74
2021/09/17 09:47:44;;;;;;;1.57;0.80;;;;;;;19.14;60.48;100764.44;5037356;28;20225;-75
2021/09/17 09:50:12;;;;;;;2.10;0.80;;;;;;;19.12;60.06;100747.53;5043527;28;20531;-75
2021/09/17 09:52:40;;;;;;;2.70;0.80;;;;;;;19.10;60.05;100763.03;5046816;28;20212;-75
2021/09/17 09:55:08;;;;;;;4.00;0.90;;;;;;;19.10;60.09;100762.19;5050179;28;20408;-75
2021/09/17 09:57:34;;;;;;;3.57;0.70;;;;;;;19.13;60.35;100764.59;5045599;28;20838;-74
2021/09/17 10:00:04;;;;;;;1.67;0.90;;;;;;;19.20;60.33;100757.56;5040740;28;20306;-74
2021/09/17 10:02:31;;;;;;;2.57;0.57;;;;;;;19.30;60.38;100759.25;5046042;28;20638;-74
2021/09/17 10:04:59;;;;;;;1.73;0.63;;;;;;;19.42;60.03;100749.94;5049647;28;20219;-75
2021/09/17 10:07:27;;;;;;;1.73;0.60;;;;;;;19.54;58.68;100755.97;5052357;28;20228;-75
2021/09/17 10:09:55;;;;;;;0.80;0.50;;;;;;;19.62;57.76;100747.13;5047490;28;20242;-75
2021/09/17 10:12:23;;;;;;;0.50;0.40;;;;;;;19.67;57.36;100748.38;5045223;28;20575;-75
2021/09/17 10:14:52;;;;;;;2.50;0.50;;;;;;;19.70;57.24;100744.53;5044437;28;20205;-74
2021/09/17 10:17:23;;;;;;;1.53;0.60;;;;;;;19.70;56.92;100741.81;5042715;28;20298;-75
2021/09/17 10:19:51;;;;;;;1.33;0.60;;;;;;;19.68;56.80;100750.09;5044380;28;20303;-75
2021/09/17 10:22:33;;;;;;;0.70;0.40;;;;;;;19.65;56.81;100749.53;5041433;28;20298;-74
2021/09/17 10:25:11;;;;;;;0.93;0.50;;;;;;;19.61;56.36;100748.13;5041382;28;20255;-74
2021/09/17 10:27:39;;;;;;;1.80;0.50;;;;;;;19.59;56.34;100753.69;5043772;28;20225;-72
2021/09/17 10:30:07;;;;;;;0.90;0.50;;;;;;;19.52;55.98;100740.97;5042371;28;20290;-74
2021/09/17 10:32:38;;;;;;;1.13;0.50;;;;;;;19.51;56.71;100750.91;5045328;28;20230;-74
2021/09/17 10:35:10;;;;;;;1.17;0.50;;;;;;;19.56;56.72;100742.31;5041506;28;20282;-73
2021/09/17 10:37:56;;;;;;;1.23;0.40;;;;;;;19.59;56.95;100742.88;5037599;28;20209;-73
2021/09/17 10:40:43;;;;;;;1.73;0.53;;;;;;;19.63;56.79;100751.53;5036179;28;20200;-73
2021/09/17 10:43:35;;;;;;;0.40;0.40;;;;;;;19.62;56.45;100742.56;5040998;28;20216;-73
2021/09/17 10:46:04;;;;;;;0.90;0.70;;;;;;;19.56;55.72;100745.03;5037681;28;20224;-73
2021/09/17 10:48:52;;;;;;;1.33;0.50;;;;;;;19.51;56.15;100744.66;5036429;28;20747;-74
2021/09/17 10:51:30;;;;;;;3.23;0.60;;;;;;;19.48;56.52;100750.31;5037862;28;20206;-74
2021/09/17 10:53:57;;;;;;;2.20;0.80;;;;;;;19.46;56.61;100741.53;5038737;28;20216;-73
2021/09/17 10:56:26;;;;;;;1.27;0.60;;;;;;;19.43;56.15;100739.97;5040732;28;20218;-73
2021/09/17 10:59:15;;;;;;;1.23;0.70;;;;;;;19.43;56.95;100746.22;5034220;28;20609;-73
2021/09/17 11:01:53;;;;;;;1.73;0.60;;;;;;;19.46;57.34;100742.38;5032856;28;20203;-73
2021/09/17 11:04:25;;;;;;;1.83;0.90;;;;;;;19.51;57.49;100744.66;5039094;28;20627;-73
2021/09/17 11:06:52;;;;;;;2.43;0.90;;;;;;;19.52;57.33;100735.56;5045224;28;20264;-72
2021/09/17 11:09:41;;;;;;;2.80;1.00;;;;;;;19.57;57.77;100744.03;5042033;28;20731;-73
2021/09/17 11:12:18;;;;;;;2.70;1.07;;;;;;;19.59;57.92;100744.72;5048784;28;20239;-74
2021/09/17 11:14:58;;;;;;;2.30;0.93;;;;;;;19.62;58.14;100741.72;5051861;28;20580;-73
2021/09/17 11:17:41;;;;;;;2.13;1.20;;;;;;;19.63;58.06;100744.28;5058258;28;20722;-74
2021/09/17 11:20:10;;;;;;;3.60;0.90;;;;;;;19.62;58.34;100736.31;5055271;28;20661;-73
2021/09/17 11:22:54;;;;;;;1.33;0.87;;;;;;;19.61;58.37;100731.91;5049839;28;20223;-73
2021/09/17 11:25:22;;;;;;;2.40;1.10;;;;;;;19.58;57.95;100729.53;5044696;28;20594;-73
2021/09/17 11:27:51;;;;;;;2.13;1.00;;;;;;;19.55;58.34;100735.22;5051667;28;20229;-74
2021/09/17 11:30:20;;;;;;;2.97;1.17;;;;;;;19.54;58.34;100734.38;5051355;28;20264;-73
2021/09/17 11:32:48;;;;;;;1.30;1.10;;;;;;;19.54;58.78;100728.97;5047297;28;20206;-73